sensor_id;sensor_type;location;lat;lon;timestamp;temperature;humidity
60033;DHT22;45905;50.570;10.428;2022-10-31T00:01:32;10.60;99.90
60033;DHT22;45905;50.570;10.428;2022-10-31T00:04:01;10.60;99.90
60033;DHT22;45905;50.570;10.428;2022-10-31T00:06:28;10.60;99.90
60033;DHT22;45905;50.570;10.428;2022-10-31T00:08:58;10.50;99.90
60033;DHT22;45905;50.570;10.428;2022-10-31T00:11:27;10.50;99.90
60033;DHT22;45905;50.570;10.428;2022-10-31T00:13:54;10.50;99.90
60033;DHT22;45905;50.570;10.428;2022-10-31T00:16:24;10.50;99.90
60033;DHT22;45905;50.570;10.428;2022-10-31T00:18:54;10.50;99.90
60033;DHT22;45905;50.570;10.428;2022-10-31T00:21:24;10.50;99.90
60033;DHT22;45905;50.570;10.428;2022-10-31T00:23:53;10.40;99.90
60033;DHT22;45905;50.570;10.428;2022-10-31T00:26:20;10.40;99.90
60033;DHT22;45905;50.570;10.428;2022-10-31T00:28:47;10.40;99.90
60033;DHT22;45905;50.570;10.428;2022-10-31T00:31:15;10.40;99.90
60033;DHT22;45905;50.570;10.428;2022-10-31T00:33:43;10.30;99.90
60033;DHT22;45905;50.570;10.428;2022-10-31T00:36:13;10.30;99.90
60033;DHT22;45905;50.570;10.428;2022-10-31T00:38:42;10.30;99.90
60033;DHT22;45905;50.570;10.428;2022-10-31T00:41:11;10.30;99.90
60033;DHT22;45905;50.570;10.428;2022-10-31T00:43:41;10.30;99.90
60033;DHT22;45905;50.570;10.428;2022-10-31T00:46:10;10.30;99.90
60033;DHT22;45905;50.570;10.428;2022-10-31T00:48:37;10.20;99.90
60033;DHT22;45905;50.570;10.428;2022-10-31T00:51:05;10.20;99.90
60033;DHT22;45905;50.570;10.428;2022-10-31T00:53:32;10.10;99.90
60033;DHT22;45905;50.570;10.428;2022-10-31T00:55:59;10.20;99.90
60033;DHT22;45905;50.570;10.428;2022-10-31T00:58:27;10.20;99.90
60033;DHT22;45905;50.570;10.428;2022-10-31T01:00:55;10.20;99.90
60033;DHT22;45905;50.570;10.428;2022-10-31T01:03:24;10.10;99.90
60033;DHT22;45905;50.570;10.428;2022-10-31T01:08:31;10.10;99.90
60033;DHT22;45905;50.570;10.428;2022-10-31T01:11:07;10.10;99.90
60033;DHT22;45905;50.570;10.428;2022-10-31T01:13:41;10.10;99.90
60033;DHT22;45905;50.570;10.428;2022-10-31T01:16:12;10.00;99.90
60033;DHT22;45905;50.570;10.428;2022-10-31T01:18:41;10.00;99.90
60033;DHT22;45905;50.570;10.428;2022-10-31T01:21:14;10.00;99.90
60033;DHT22;45905;50.570;10.428;2022-10-31T01:23:44;9.90;99.90
60033;DHT22;45905;50.570;10.428;2022-10-31T01:26:15;9.90;99.90
60033;DHT22;45905;50.570;10.428;2022-10-31T01:29:19;9.90;99.90
60033;DHT22;45905;50.570;10.428;2022-10-31T01:31:46;9.90;99.90
60033;DHT22;45905;50.570;10.428;2022-10-31T01:34:16;9.90;99.90
60033;DHT22;45905;50.570;10.428;2022-10-31T01:36:45;9.80;99.90
60033;DHT22;45905;50.570;10.428;2022-10-31T01:39:15;9.80;99.90
60033;DHT22;45905;50.570;10.428;2022-10-31T01:41:46;9.90;99.90
60033;DHT22;45905;50.570;10.428;2022-10-31T01:46:53;9.70;99.90
60033;DHT22;45905;50.570;10.428;2022-10-31T01:49:35;9.70;99.90
60033;DHT22;45905;50.570;10.428;2022-10-31T01:55:06;9.60;99.90
60033;DHT22;45905;50.570;10.428;2022-10-31T01:57:38;9.60;99.90
60033;DHT22;45905;50.570;10.428;2022-10-31T02:00:10;9.60;99.90
60033;DHT22;45905;50.570;10.428;2022-10-31T02:02:42;9.60;99.90
60033;DHT22;45905;50.570;10.428;2022-10-31T02:05:22;9.60;99.90
60033;DHT22;45905;50.570;10.428;2022-10-31T02:08:08;9.60;99.90
60033;DHT22;45905;50.570;10.428;2022-10-31T02:10:42;9.60;99.90
60033;DHT22;45905;50.570;10.428;2022-10-31T02:13:11;9.50;99.90
60033;DHT22;45905;50.570;10.428;2022-10-31T02:15:46;9.60;99.90
60033;DHT22;45905;50.570;10.428;2022-10-31T02:18:18;9.50;99.90
60033;DHT22;45905;50.570;10.428;2022-10-31T02:23:48;9.40;99.90
60033;DHT22;45905;50.570;10.428;2022-10-31T02:30:28;9.40;99.90
60033;DHT22;45905;50.570;10.428;2022-10-31T02:33:35;9.40;99.90
60033;DHT22;45905;50.570;10.428;2022-10-31T02:36:20;9.40;99.90
60033;DHT22;45905;50.570;10.428;2022-10-31T02:39:12;9.40;99.90
60033;DHT22;45905;50.570;10.428;2022-10-31T02:41:57;9.40;99.90
60033;DHT22;45905;50.570;10.428;2022-10-31T02:44:47;9.50;99.90
60033;DHT22;45905;50.570;10.428;2022-10-31T02:47:38;9.40;99.90
60033;DHT22;45905;50.570;10.428;2022-10-31T02:50:08;9.50;99.90
60033;DHT22;45905;50.570;10.428;2022-10-31T02:52:39;9.40;99.90
60033;DHT22;45905;50.570;10.428;2022-10-31T02:58:08;9.50;99.90
60033;DHT22;45905;50.570;10.428;2022-10-31T03:04:22;9.50;99.90
60033;DHT22;45905;50.570;10.428;2022-10-31T03:16:00;9.40;99.90
60033;DHT22;45905;50.570;10.428;2022-10-31T03:18:40;9.50;99.90
60033;DHT22;45905;50.570;10.428;2022-10-31T03:21:22;9.40;99.90
60033;DHT22;45905;50.570;10.428;2022-10-31T03:23:54;9.40;99.90
60033;DHT22;45905;50.570;10.428;2022-10-31T03:26:23;9.40;99.90
60033;DHT22;45905;50.570;10.428;2022-10-31T03:29:02;9.50;99.90
60033;DHT22;45905;50.570;10.428;2022-10-31T03:31:39;9.50;99.90
60033;DHT22;45905;50.570;10.428;2022-10-31T03:34:14;9.40;99.90
60033;DHT22;45905;50.570;10.428;2022-10-31T03:36:45;9.50;99.90
60033;DHT22;45905;50.570;10.428;2022-10-31T03:39:18;9.50;99.90
60033;DHT22;45905;50.570;10.428;2022-10-31T03:42:05;9.40;99.90
60033;DHT22;45905;50.570;10.428;2022-10-31T03:44:37;9.40;99.90
60033;DHT22;45905;50.570;10.428;2022-10-31T03:47:08;9.60;99.90
60033;DHT22;45905;50.570;10.428;2022-10-31T03:49:35;9.40;99.90
60033;DHT22;45905;50.570;10.428;2022-10-31T03:52:13;9.40;99.90
60033;DHT22;45905;50.570;10.428;2022-10-31T03:55:38;9.40;99.90
60033;DHT22;45905;50.570;10.428;2022-10-31T03:58:34;9.40;99.90
60033;DHT22;45905;50.570;10.428;2022-10-31T04:01:11;9.40;99.90
60033;DHT22;45905;50.570;10.428;2022-10-31T04:03:44;9.30;99.90
60033;DHT22;45905;50.570;10.428;2022-10-31T04:06:14;9.30;99.90
60033;DHT22;45905;50.570;10.428;2022-10-31T04:09:04;9.30;99.90
60033;DHT22;45905;50.570;10.428;2022-10-31T04:11:41;9.20;99.90
60033;DHT22;45905;50.570;10.428;2022-10-31T04:14:39;9.40;99.90
60033;DHT22;45905;50.570;10.428;2022-10-31T04:17:12;9.30;99.90
60033;DHT22;45905;50.570;10.428;2022-10-31T04:19:43;9.20;99.90
60033;DHT22;45905;50.570;10.428;2022-10-31T04:22:10;9.20;99.90
60033;DHT22;45905;50.570;10.428;2022-10-31T04:24:39;9.20;99.90
60033;DHT22;45905;50.570;10.428;2022-10-31T04:27:10;9.20;99.90
60033;DHT22;45905;50.570;10.428;2022-10-31T04:29:37;9.00;99.90
60033;DHT22;45905;50.570;10.428;2022-10-31T04:32:04;9.20;99.90
60033;DHT22;45905;50.570;10.428;2022-10-31T04:34:31;9.10;99.90
60033;DHT22;45905;50.570;10.428;2022-10-31T04:36:58;9.20;99.90
60033;DHT22;45905;50.570;10.428;2022-10-31T04:39:26;9.10;99.90
60033;DHT22;45905;50.570;10.428;2022-10-31T04:42:16;9.30;99.90
60033;DHT22;45905;50.570;10.428;2022-10-31T04:44:43;9.10;99.90
60033;DHT22;45905;50.570;10.428;2022-10-31T04:47:11;9.10;99.90
60033;DHT22;45905;50.570;10.428;2022-10-31T04:49:38;9.00;99.90
60033;DHT22;45905;50.570;10.428;2022-10-31T04:52:06;9.00;99.90
60033;DHT22;45905;50.570;10.428;2022-10-31T04:54:34;8.90;99.90
60033;DHT22;45905;50.570;10.428;2022-10-31T04:57:21;9.00;99.90
60033;DHT22;45905;50.570;10.428;2022-10-31T04:59:49;9.00;99.90
60033;DHT22;45905;50.570;10.428;2022-10-31T05:02:16;9.00;99.90
60033;DHT22;45905;50.570;10.428;2022-10-31T05:04:49;9.00;99.90
60033;DHT22;45905;50.570;10.428;2022-10-31T05:07:17;9.00;99.90
60033;DHT22;45905;50.570;10.428;2022-10-31T05:09:44;8.90;99.90
60033;DHT22;45905;50.570;10.428;2022-10-31T05:12:12;8.90;99.90
60033;DHT22;45905;50.570;10.428;2022-10-31T05:15:19;8.90;99.90
60033;DHT22;45905;50.570;10.428;2022-10-31T05:18:25;8.90;99.90
60033;DHT22;45905;50.570;10.428;2022-10-31T05:21:10;8.90;99.90
60033;DHT22;45905;50.570;10.428;2022-10-31T05:23:43;8.80;99.90
60033;DHT22;45905;50.570;10.428;2022-10-31T05:26:14;8.80;99.90
60033;DHT22;45905;50.570;10.428;2022-10-31T05:28:41;8.80;99.90
60033;DHT22;45905;50.570;10.428;2022-10-31T05:31:08;8.80;99.90
60033;DHT22;45905;50.570;10.428;2022-10-31T05:33:35;8.80;99.90
60033;DHT22;45905;50.570;10.428;2022-10-31T05:36:08;8.80;99.90
60033;DHT22;45905;50.570;10.428;2022-10-31T05:38:58;8.80;99.90
60033;DHT22;45905;50.570;10.428;2022-10-31T05:41:30;8.80;99.90
60033;DHT22;45905;50.570;10.428;2022-10-31T05:44:08;8.70;99.90
60033;DHT22;45905;50.570;10.428;2022-10-31T05:46:49;8.70;99.90
60033;DHT22;45905;50.570;10.428;2022-10-31T05:49:36;8.70;99.90
60033;DHT22;45905;50.570;10.428;2022-10-31T05:52:22;8.70;99.90
60033;DHT22;45905;50.570;10.428;2022-10-31T05:54:57;8.70;99.90
60033;DHT22;45905;50.570;10.428;2022-10-31T05:57:24;8.70;99.90
60033;DHT22;45905;50.570;10.428;2022-10-31T05:59:52;8.60;99.90
60033;DHT22;45905;50.570;10.428;2022-10-31T06:02:22;8.70;99.90
60033;DHT22;45905;50.570;10.428;2022-10-31T06:05:08;8.70;99.90
60033;DHT22;45905;50.570;10.428;2022-10-31T06:07:36;8.60;99.90
60033;DHT22;45905;50.570;10.428;2022-10-31T06:10:05;8.60;99.90
60033;DHT22;45905;50.570;10.428;2022-10-31T06:12:35;8.60;99.90
60033;DHT22;45905;50.570;10.428;2022-10-31T06:15:16;8.70;99.90
60033;DHT22;45905;50.570;10.428;2022-10-31T06:18:05;8.80;99.90
60033;DHT22;45905;50.570;10.428;2022-10-31T06:20:36;8.60;99.90
60033;DHT22;45905;50.570;10.428;2022-10-31T06:23:04;8.80;99.90
60033;DHT22;45905;50.570;10.428;2022-10-31T06:25:33;8.70;99.90
60033;DHT22;45905;50.570;10.428;2022-10-31T06:28:00;8.70;99.90
60033;DHT22;45905;50.570;10.428;2022-10-31T06:30:36;8.80;99.90
60033;DHT22;45905;50.570;10.428;2022-10-31T06:33:04;8.70;99.90
60033;DHT22;45905;50.570;10.428;2022-10-31T06:35:34;8.70;99.90
60033;DHT22;45905;50.570;10.428;2022-10-31T06:38:01;8.60;99.90
60033;DHT22;45905;50.570;10.428;2022-10-31T06:40:36;8.70;99.90
60033;DHT22;45905;50.570;10.428;2022-10-31T06:43:24;8.60;99.90
60033;DHT22;45905;50.570;10.428;2022-10-31T06:46:06;8.60;99.90
60033;DHT22;45905;50.570;10.428;2022-10-31T06:48:46;8.60;99.90
60033;DHT22;45905;50.570;10.428;2022-10-31T06:51:33;8.60;99.90
60033;DHT22;45905;50.570;10.428;2022-10-31T06:54:01;8.60;99.90
60033;DHT22;45905;50.570;10.428;2022-10-31T06:56:28;8.70;99.90
60033;DHT22;45905;50.570;10.428;2022-10-31T06:58:57;8.70;99.90
60033;DHT22;45905;50.570;10.428;2022-10-31T07:01:53;8.70;99.90
60033;DHT22;45905;50.570;10.428;2022-10-31T07:04:20;8.70;99.90
60033;DHT22;45905;50.570;10.428;2022-10-31T07:06:49;8.70;99.90
60033;DHT22;45905;50.570;10.428;2022-10-31T07:09:18;8.70;99.90
60033;DHT22;45905;50.570;10.428;2022-10-31T07:11:47;8.70;99.90
60033;DHT22;45905;50.570;10.428;2022-10-31T07:14:14;8.70;99.90
60033;DHT22;45905;50.570;10.428;2022-10-31T07:16:41;8.80;99.90
60033;DHT22;45905;50.570;10.428;2022-10-31T07:19:11;8.70;99.90
60033;DHT22;45905;50.570;10.428;2022-10-31T07:21:38;8.80;99.90
60033;DHT22;45905;50.570;10.428;2022-10-31T07:24:06;8.80;99.90
60033;DHT22;45905;50.570;10.428;2022-10-31T07:26:42;8.70;99.90
60033;DHT22;45905;50.570;10.428;2022-10-31T07:29:10;8.70;99.90
60033;DHT22;45905;50.570;10.428;2022-10-31T07:31:37;8.70;99.90
60033;DHT22;45905;50.570;10.428;2022-10-31T07:34:12;8.70;99.90
60033;DHT22;45905;50.570;10.428;2022-10-31T07:37:01;8.70;99.90
60033;DHT22;45905;50.570;10.428;2022-10-31T07:39:29;8.70;99.90
60033;DHT22;45905;50.570;10.428;2022-10-31T07:41:58;8.70;99.90
60033;DHT22;45905;50.570;10.428;2022-10-31T07:44:26;8.70;99.90
60033;DHT22;45905;50.570;10.428;2022-10-31T07:47:22;8.80;99.90
60033;DHT22;45905;50.570;10.428;2022-10-31T07:50:10;8.80;99.90
60033;DHT22;45905;50.570;10.428;2022-10-31T07:53:12;8.70;99.90
60033;DHT22;45905;50.570;10.428;2022-10-31T07:55:51;8.70;99.90
60033;DHT22;45905;50.570;10.428;2022-10-31T07:58:18;8.80;99.90
60033;DHT22;45905;50.570;10.428;2022-10-31T08:00:46;8.70;99.90
60033;DHT22;45905;50.570;10.428;2022-10-31T08:03:21;9.00;99.90
60033;DHT22;45905;50.570;10.428;2022-10-31T08:06:07;8.70;99.90
60033;DHT22;45905;50.570;10.428;2022-10-31T08:08:52;8.80;99.90
60033;DHT22;45905;50.570;10.428;2022-10-31T08:11:19;8.90;99.90
60033;DHT22;45905;50.570;10.428;2022-10-31T08:13:47;8.80;99.90
60033;DHT22;45905;50.570;10.428;2022-10-31T08:16:14;8.90;99.90
60033;DHT22;45905;50.570;10.428;2022-10-31T08:18:50;8.90;99.90
60033;DHT22;45905;50.570;10.428;2022-10-31T08:21:18;8.90;99.90
60033;DHT22;45905;50.570;10.428;2022-10-31T08:23:46;9.00;99.90
60033;DHT22;45905;50.570;10.428;2022-10-31T08:26:14;9.00;99.90
60033;DHT22;45905;50.570;10.428;2022-10-31T08:28:42;9.20;99.90
60033;DHT22;45905;50.570;10.428;2022-10-31T08:31:09;9.10;99.90
60033;DHT22;45905;50.570;10.428;2022-10-31T08:33:39;9.10;99.90
60033;DHT22;45905;50.570;10.428;2022-10-31T08:36:19;9.10;99.90
60033;DHT22;45905;50.570;10.428;2022-10-31T08:38:58;9.10;99.90
60033;DHT22;45905;50.570;10.428;2022-10-31T08:41:29;9.20;99.90
60033;DHT22;45905;50.570;10.428;2022-10-31T08:43:58;9.20;99.90
60033;DHT22;45905;50.570;10.428;2022-10-31T08:46:25;9.20;99.90
60033;DHT22;45905;50.570;10.428;2022-10-31T08:48:52;9.20;99.90
60033;DHT22;45905;50.570;10.428;2022-10-31T08:51:20;9.30;99.90
60033;DHT22;45905;50.570;10.428;2022-10-31T08:53:51;9.30;99.90
60033;DHT22;45905;50.570;10.428;2022-10-31T08:56:54;9.40;99.90
60033;DHT22;45905;50.570;10.428;2022-10-31T08:59:37;9.30;99.90
60033;DHT22;45905;50.570;10.428;2022-10-31T09:02:22;9.30;99.90
60033;DHT22;45905;50.570;10.428;2022-10-31T09:04:53;9.30;99.90
60033;DHT22;45905;50.570;10.428;2022-10-31T09:07:20;9.30;99.90
60033;DHT22;45905;50.570;10.428;2022-10-31T09:09:47;9.40;99.90
60033;DHT22;45905;50.570;10.428;2022-10-31T09:12:16;9.30;99.90
60033;DHT22;45905;50.570;10.428;2022-10-31T09:15:01;9.40;99.90
60033;DHT22;45905;50.570;10.428;2022-10-31T09:17:52;9.40;99.90
60033;DHT22;45905;50.570;10.428;2022-10-31T09:20:33;9.40;99.90
60033;DHT22;45905;50.570;10.428;2022-10-31T09:23:08;9.50;99.90
60033;DHT22;45905;50.570;10.428;2022-10-31T09:25:40;9.50;99.90
60033;DHT22;45905;50.570;10.428;2022-10-31T09:28:33;9.50;99.90
60033;DHT22;45905;50.570;10.428;2022-10-31T09:31:05;9.50;99.90
60033;DHT22;45905;50.570;10.428;2022-10-31T09:33:49;9.60;99.90
60033;DHT22;45905;50.570;10.428;2022-10-31T09:36:42;9.60;99.90
60033;DHT22;45905;50.570;10.428;2022-10-31T09:39:17;9.70;99.90
60033;DHT22;45905;50.570;10.428;2022-10-31T09:45:35;9.90;99.90
60033;DHT22;45905;50.570;10.428;2022-10-31T09:51:34;10.10;99.90
60033;DHT22;45905;50.570;10.428;2022-10-31T09:54:20;10.10;99.90
60033;DHT22;45905;50.570;10.428;2022-10-31T09:56:53;10.30;99.90
60033;DHT22;45905;50.570;10.428;2022-10-31T09:59:37;10.40;99.90
60033;DHT22;45905;50.570;10.428;2022-10-31T10:02:33;10.50;99.90
60033;DHT22;45905;50.570;10.428;2022-10-31T10:05:11;10.60;99.90
60033;DHT22;45905;50.570;10.428;2022-10-31T10:08:11;10.70;99.90
60033;DHT22;45905;50.570;10.428;2022-10-31T10:11:40;10.90;99.90
60033;DHT22;45905;50.570;10.428;2022-10-31T10:17:31;10.90;99.90
60033;DHT22;45905;50.570;10.428;2022-10-31T10:25:40;11.30;99.90
60033;DHT22;45905;50.570;10.428;2022-10-31T10:28:30;11.40;99.90
60033;DHT22;45905;50.570;10.428;2022-10-31T10:31:14;11.50;99.90
60033;DHT22;45905;50.570;10.428;2022-10-31T10:37:01;11.70;99.90
60033;DHT22;45905;50.570;10.428;2022-10-31T10:39:38;11.80;99.90
60033;DHT22;45905;50.570;10.428;2022-10-31T10:42:14;11.90;99.90
60033;DHT22;45905;50.570;10.428;2022-10-31T10:45:21;12.00;99.90
60033;DHT22;45905;50.570;10.428;2022-10-31T10:48:20;12.10;99.90
60033;DHT22;45905;50.570;10.428;2022-10-31T10:51:23;12.20;99.90
60033;DHT22;45905;50.570;10.428;2022-10-31T11:00:21;12.50;99.90
60033;DHT22;45905;50.570;10.428;2022-10-31T11:02:50;12.70;99.90
60033;DHT22;45905;50.570;10.428;2022-10-31T11:05:25;12.70;99.90
60033;DHT22;45905;50.570;10.428;2022-10-31T11:08:04;12.80;99.90
60033;DHT22;45905;50.570;10.428;2022-10-31T11:10:32;13.00;99.90
60033;DHT22;45905;50.570;10.428;2022-10-31T11:13:21;13.10;99.90
60033;DHT22;45905;50.570;10.428;2022-10-31T11:15:55;13.20;99.90
60033;DHT22;45905;50.570;10.428;2022-10-31T11:18:34;13.20;99.90
60033;DHT22;45905;50.570;10.428;2022-10-31T11:21:05;13.30;99.90
60033;DHT22;45905;50.570;10.428;2022-10-31T11:23:32;13.40;99.90
60033;DHT22;45905;50.570;10.428;2022-10-31T11:26:02;13.50;99.90
60033;DHT22;45905;50.570;10.428;2022-10-31T11:28:33;13.50;99.90
60033;DHT22;45905;50.570;10.428;2022-10-31T11:31:13;13.60;99.90
60033;DHT22;45905;50.570;10.428;2022-10-31T11:33:46;13.50;99.90
60033;DHT22;45905;50.570;10.428;2022-10-31T11:36:25;13.70;99.90
60033;DHT22;45905;50.570;10.428;2022-10-31T11:38:55;13.80;99.90
60033;DHT22;45905;50.570;10.428;2022-10-31T11:41:33;13.90;99.90
60033;DHT22;45905;50.570;10.428;2022-10-31T11:44:16;14.00;99.90
60033;DHT22;45905;50.570;10.428;2022-10-31T11:46:54;14.10;99.90
60033;DHT22;45905;50.570;10.428;2022-10-31T11:49:40;14.20;99.90
60033;DHT22;45905;50.570;10.428;2022-10-31T11:52:22;14.30;99.90
60033;DHT22;45905;50.570;10.428;2022-10-31T11:55:02;14.40;99.90
60033;DHT22;45905;50.570;10.428;2022-10-31T11:57:47;14.50;99.90
60033;DHT22;45905;50.570;10.428;2022-10-31T12:00:24;14.50;99.90
60033;DHT22;45905;50.570;10.428;2022-10-31T12:03:33;14.60;99.90
60033;DHT22;45905;50.570;10.428;2022-10-31T12:06:57;14.70;99.90
60033;DHT22;45905;50.570;10.428;2022-10-31T12:09:23;14.80;99.90
60033;DHT22;45905;50.570;10.428;2022-10-31T12:33:27;15.40;99.90
60033;DHT22;45905;50.570;10.428;2022-10-31T12:41:52;15.60;99.90
60033;DHT22;45905;50.570;10.428;2022-10-31T12:59:28;16.00;99.90
60033;DHT22;45905;50.570;10.428;2022-10-31T13:02:21;16.10;99.90
60033;DHT22;45905;50.570;10.428;2022-10-31T13:04:55;16.20;99.90
60033;DHT22;45905;50.570;10.428;2022-10-31T13:07:37;16.20;99.90
60033;DHT22;45905;50.570;10.428;2022-10-31T13:12:51;16.30;99.90
60033;DHT22;45905;50.570;10.428;2022-10-31T13:15:46;16.30;99.90
60033;DHT22;45905;50.570;10.428;2022-10-31T13:18:24;16.30;99.90
60033;DHT22;45905;50.570;10.428;2022-10-31T13:20:57;16.40;99.90
60033;DHT22;45905;50.570;10.428;2022-10-31T13:23:36;16.50;99.90
60033;DHT22;45905;50.570;10.428;2022-10-31T13:31:40;16.60;99.90
60033;DHT22;45905;50.570;10.428;2022-10-31T13:34:58;16.60;99.90
60033;DHT22;45905;50.570;10.428;2022-10-31T13:37:35;16.70;99.90
60033;DHT22;45905;50.570;10.428;2022-10-31T13:46:34;16.80;99.90
60033;DHT22;45905;50.570;10.428;2022-10-31T13:52:14;16.80;99.90
60033;DHT22;45905;50.570;10.428;2022-10-31T13:54:46;16.80;99.90
60033;DHT22;45905;50.570;10.428;2022-10-31T13:57:32;16.90;99.90
60033;DHT22;45905;50.570;10.428;2022-10-31T14:02:51;16.90;99.90
60033;DHT22;45905;50.570;10.428;2022-10-31T14:05:26;16.90;99.90
60033;DHT22;45905;50.570;10.428;2022-10-31T14:07:58;16.90;99.90
60033;DHT22;45905;50.570;10.428;2022-10-31T14:10:33;16.90;99.90
60033;DHT22;45905;50.570;10.428;2022-10-31T14:13:26;16.90;99.90
60033;DHT22;45905;50.570;10.428;2022-10-31T14:16:04;16.90;99.90
60033;DHT22;45905;50.570;10.428;2022-10-31T14:18:47;16.90;99.90
60033;DHT22;45905;50.570;10.428;2022-10-31T14:23:52;16.90;99.90
60033;DHT22;45905;50.570;10.428;2022-10-31T14:31:51;16.90;99.90
60033;DHT22;45905;50.570;10.428;2022-10-31T14:34:27;16.90;99.90
60033;DHT22;45905;50.570;10.428;2022-10-31T14:51:40;16.80;99.90
60033;DHT22;45905;50.570;10.428;2022-10-31T14:54:33;16.80;99.90
60033;DHT22;45905;50.570;10.428;2022-10-31T14:57:06;16.80;99.90
60033;DHT22;45905;50.570;10.428;2022-10-31T14:59:44;16.70;99.90
60033;DHT22;45905;50.570;10.428;2022-10-31T15:02:26;16.70;99.90
60033;DHT22;45905;50.570;10.428;2022-10-31T15:05:12;16.70;99.90
60033;DHT22;45905;50.570;10.428;2022-10-31T15:07:52;16.70;99.90
60033;DHT22;45905;50.570;10.428;2022-10-31T15:10:29;16.70;99.90
60033;DHT22;45905;50.570;10.428;2022-10-31T15:13:31;16.70;99.90
60033;DHT22;45905;50.570;10.428;2022-10-31T15:15:58;16.60;99.90
60033;DHT22;45905;50.570;10.428;2022-10-31T15:18:27;16.60;99.90
60033;DHT22;45905;50.570;10.428;2022-10-31T15:20:56;16.50;99.90
60033;DHT22;45905;50.570;10.428;2022-10-31T15:23:28;16.50;99.90
60033;DHT22;45905;50.570;10.428;2022-10-31T15:26:01;16.50;99.90
60033;DHT22;45905;50.570;10.428;2022-10-31T15:28:31;16.40;99.90
60033;DHT22;45905;50.570;10.428;2022-10-31T15:31:00;16.40;99.90
60033;DHT22;45905;50.570;10.428;2022-10-31T15:33:31;16.40;99.90
60033;DHT22;45905;50.570;10.428;2022-10-31T15:36:22;16.30;99.90
60033;DHT22;45905;50.570;10.428;2022-10-31T15:38:56;16.30;99.90
60033;DHT22;45905;50.570;10.428;2022-10-31T15:41:49;16.20;99.90
60033;DHT22;45905;50.570;10.428;2022-10-31T15:44:26;16.20;99.90
60033;DHT22;45905;50.570;10.428;2022-10-31T15:47:03;16.10;99.90
60033;DHT22;45905;50.570;10.428;2022-10-31T15:49:40;16.10;99.90
60033;DHT22;45905;50.570;10.428;2022-10-31T15:55:04;16.00;99.90
60033;DHT22;45905;50.570;10.428;2022-10-31T15:57:52;16.00;99.90
60033;DHT22;45905;50.570;10.428;2022-10-31T16:00:34;15.90;99.90
60033;DHT22;45905;50.570;10.428;2022-10-31T16:05:50;15.70;99.90
60033;DHT22;45905;50.570;10.428;2022-10-31T16:08:32;15.80;99.90
60033;DHT22;45905;50.570;10.428;2022-10-31T16:13:53;15.70;99.90
60033;DHT22;45905;50.570;10.428;2022-10-31T16:16:22;15.60;99.90
60033;DHT22;45905;50.570;10.428;2022-10-31T16:21:48;15.50;99.90
60033;DHT22;45905;50.570;10.428;2022-10-31T16:24:36;15.50;99.90
60033;DHT22;45905;50.570;10.428;2022-10-31T16:27:30;15.50;99.90
60033;DHT22;45905;50.570;10.428;2022-10-31T16:30:00;15.40;99.90
60033;DHT22;45905;50.570;10.428;2022-10-31T16:32:37;15.40;99.90
60033;DHT22;45905;50.570;10.428;2022-10-31T16:35:28;15.30;99.90
60033;DHT22;45905;50.570;10.428;2022-10-31T16:37:59;15.30;99.90
60033;DHT22;45905;50.570;10.428;2022-10-31T16:40:26;15.20;99.90
60033;DHT22;45905;50.570;10.428;2022-10-31T16:42:53;15.20;99.90
60033;DHT22;45905;50.570;10.428;2022-10-31T16:45:28;15.10;99.90
60033;DHT22;45905;50.570;10.428;2022-10-31T16:48:06;15.10;99.90
60033;DHT22;45905;50.570;10.428;2022-10-31T16:50:37;15.10;99.90
60033;DHT22;45905;50.570;10.428;2022-10-31T16:53:05;15.00;99.90
60033;DHT22;45905;50.570;10.428;2022-10-31T16:55:56;15.00;99.90
60033;DHT22;45905;50.570;10.428;2022-10-31T16:58:26;14.90;99.90
60033;DHT22;45905;50.570;10.428;2022-10-31T17:00:56;14.90;99.90
60033;DHT22;45905;50.570;10.428;2022-10-31T17:03:24;14.90;99.90
60033;DHT22;45905;50.570;10.428;2022-10-31T17:05:52;14.80;99.90
60033;DHT22;45905;50.570;10.428;2022-10-31T17:08:22;14.80;99.90
60033;DHT22;45905;50.570;10.428;2022-10-31T17:10:51;14.80;99.90
60033;DHT22;45905;50.570;10.428;2022-10-31T17:13:22;14.70;99.90
60033;DHT22;45905;50.570;10.428;2022-10-31T17:15:54;14.70;99.90
60033;DHT22;45905;50.570;10.428;2022-10-31T17:18:23;14.60;99.90
60033;DHT22;45905;50.570;10.428;2022-10-31T17:20:58;14.50;99.90
60033;DHT22;45905;50.570;10.428;2022-10-31T17:23:27;14.50;99.90
60033;DHT22;45905;50.570;10.428;2022-10-31T17:25:55;14.40;99.90
60033;DHT22;45905;50.570;10.428;2022-10-31T17:28:22;14.40;99.90
60033;DHT22;45905;50.570;10.428;2022-10-31T17:30:54;14.40;99.90
60033;DHT22;45905;50.570;10.428;2022-10-31T17:33:24;14.30;99.90
60033;DHT22;45905;50.570;10.428;2022-10-31T17:35:51;14.30;99.90
60033;DHT22;45905;50.570;10.428;2022-10-31T17:38:18;14.20;99.90
60033;DHT22;45905;50.570;10.428;2022-10-31T17:40:45;14.20;99.90
60033;DHT22;45905;50.570;10.428;2022-10-31T17:43:13;14.20;99.90
60033;DHT22;45905;50.570;10.428;2022-10-31T17:45:41;14.10;99.90
60033;DHT22;45905;50.570;10.428;2022-10-31T17:48:11;14.10;99.90
60033;DHT22;45905;50.570;10.428;2022-10-31T17:50:38;14.00;99.90
60033;DHT22;45905;50.570;10.428;2022-10-31T17:53:06;14.00;99.90
60033;DHT22;45905;50.570;10.428;2022-10-31T17:55:33;13.90;99.90
60033;DHT22;45905;50.570;10.428;2022-10-31T17:58:03;13.80;99.90
60033;DHT22;45905;50.570;10.428;2022-10-31T18:00:31;13.80;99.90
60033;DHT22;45905;50.570;10.428;2022-10-31T18:03:01;13.80;99.90
60033;DHT22;45905;50.570;10.428;2022-10-31T18:05:30;13.70;99.90
60033;DHT22;45905;50.570;10.428;2022-10-31T18:07:57;13.70;99.90
60033;DHT22;45905;50.570;10.428;2022-10-31T18:10:30;13.60;99.90
60033;DHT22;45905;50.570;10.428;2022-10-31T18:12:57;13.60;99.90
60033;DHT22;45905;50.570;10.428;2022-10-31T18:15:25;13.60;99.90
60033;DHT22;45905;50.570;10.428;2022-10-31T18:17:52;13.60;99.90
60033;DHT22;45905;50.570;10.428;2022-10-31T18:20:19;13.50;99.90
60033;DHT22;45905;50.570;10.428;2022-10-31T18:22:46;13.50;99.90
60033;DHT22;45905;50.570;10.428;2022-10-31T18:25:13;13.50;99.90
60033;DHT22;45905;50.570;10.428;2022-10-31T18:27:40;13.40;99.90
60033;DHT22;45905;50.570;10.428;2022-10-31T18:30:07;13.40;99.90
60033;DHT22;45905;50.570;10.428;2022-10-31T18:32:35;13.20;99.90
60033;DHT22;45905;50.570;10.428;2022-10-31T18:35:02;13.20;99.90
60033;DHT22;45905;50.570;10.428;2022-10-31T18:37:29;13.10;99.90
60033;DHT22;45905;50.570;10.428;2022-10-31T18:39:56;13.10;99.90
60033;DHT22;45905;50.570;10.428;2022-10-31T18:42:23;13.10;99.90
60033;DHT22;45905;50.570;10.428;2022-10-31T18:44:50;13.10;99.90
60033;DHT22;45905;50.570;10.428;2022-10-31T18:47:17;13.10;99.90